Time;durP1;ratioP1;P1;durP2;ratioP2;P2;SDS_P1;SDS_P2;PMS_P1;PMS_P2;Temp;Humidity;BMP_temperature;BMP_pressure;BME280_temperature;BME280_humidity;BME280_pressure;Samples;Min_cycle;Max_cycle;Signal;HPM_P1;HPM_P2
2021/09/16 00:12:05;;;;;;;2.67;0.65;;;16.90;92.00;;;;;;4839455;29;20068;-86
2021/09/16 00:14:46;;;;;;;2.63;0.68;;;17.00;92.30;;;;;;4864557;29;20104;-85
2021/09/16 00:17:11;;;;;;;5.00;0.90;;;16.90;92.30;;;;;;4864857;29;20041;-86
2021/09/16 00:19:37;;;;;;;7.57;0.93;;;16.90;92.30;;;;;;4864712;29;20052;-86
2021/09/16 00:22:09;;;;;;;3.72;0.70;;;16.90;92.00;;;;;;4865013;29;20119;-86
2021/09/16 00:24:34;;;;;;;3.13;0.47;;;16.90;92.40;;;;;;4865088;29;20406;-86
2021/09/16 00:27:00;;;;;;;3.72;0.55;;;16.90;92.60;;;;;;4861545;29;20045;-87
2021/09/16 00:29:38;;;;;;;4.50;0.80;;;16.90;92.30;;;;;;4863946;29;20402;-86
2021/09/16 00:32:04;;;;;;;3.22;0.70;;;16.90;91.90;;;;;;4864582;29;20041;-86
2021/09/16 00:34:30;;;;;;;3.65;0.57;;;16.90;92.50;;;;;;4879970;29;20501;-86
2021/09/16 00:36:55;;;;;;;7.40;0.93;;;16.80;92.40;;;;;;4881258;29;20041;-86
2021/09/16 00:39:21;;;;;;;2.58;0.50;;;16.80;92.10;;;;;;4864234;29;21332;-86
2021/09/16 00:41:46;;;;;;;3.67;0.63;;;16.80;92.30;;;;;;4864753;29;20076;-86
2021/09/16 00:44:12;;;;;;;4.03;0.63;;;16.80;92.70;;;;;;4863888;29;20052;-86
2021/09/16 00:46:37;;;;;;;5.38;0.70;;;16.70;92.40;;;;;;4864212;29;20053;-86
2021/09/16 00:49:04;;;;;;;4.72;0.70;;;16.70;92.50;;;;;;4864066;29;20148;-85
2021/09/16 00:51:30;;;;;;;2.58;0.60;;;16.70;92.40;;;;;;4862731;29;20053;-86
2021/09/16 00:53:58;;;;;;;6.47;0.82;;;16.60;92.60;;;;;;4864971;29;20041;-86
2021/09/16 00:56:25;;;;;;;3.78;0.70;;;16.60;92.90;;;;;;4862800;29;20048;-85
2021/09/16 00:58:53;;;;;;;2.97;0.65;;;16.60;93.00;;;;;;4848903;29;20064;-85
2021/09/16 01:12:46;;;;;;;4.50;0.77;;;16.40;92.30;;;;;;4874967;29;20052;-86
2021/09/16 01:15:24;;;;;;;4.35;0.65;;;16.40;92.50;;;;;;4863996;29;20139;-86
2021/09/16 01:17:50;;;;;;;3.03;0.63;;;16.40;92.70;;;;;;4864302;29;20096;-86
2021/09/16 01:20:16;;;;;;;5.10;0.75;;;16.30;92.90;;;;;;4870452;29;20040;-86
2021/09/16 01:22:41;;;;;;;4.93;0.80;;;16.30;92.90;;;;;;4866251;29;20043;-86
2021/09/16 01:25:08;;;;;;;4.80;0.63;;;16.30;93.10;;;;;;4873367;29;20040;-86
2021/09/16 01:27:33;;;;;;;3.33;0.70;;;16.40;93.10;;;;;;4871258;29;20049;-86
2021/09/16 01:29:59;;;;;;;5.05;0.70;;;16.30;93.10;;;;;;4866597;29;20048;-85
2021/09/16 01:32:25;;;;;;;3.45;0.70;;;16.30;93.10;;;;;;4870264;29;20569;-85
2021/09/16 01:34:54;;;;;;;6.22;0.88;;;16.30;93.00;;;;;;5071287;23;20537;-86
2021/09/16 01:41:31;;;;;;;3.70;0.70;;;16.30;92.90;;;;;;4802923;29;20046;-86
2021/09/16 01:43:57;;;;;;;3.78;0.50;;;16.20;93.00;;;;;;4789645;29;20639;-86
2021/09/16 01:46:25;;;;;;;3.40;1.00;;;16.20;93.20;;;;;;4789421;29;20135;-86
2021/09/16 02:00:56;;;;;;;3.80;0.75;;;16.10;93.00;;;;;;4767914;30;20136;-86
2021/09/16 02:03:27;;;;;;;6.30;0.85;;;16.10;93.00;;;;;;4754673;30;20056;-86
2021/09/16 02:05:55;;;;;;;2.35;0.70;;;16.10;93.30;;;;;;4772625;29;20156;-86
2021/09/16 02:08:33;;;;;;;5.95;0.82;;;16.10;93.40;;;;;;4803761;29;20168;-85
2021/09/16 02:11:07;;;;;;;4.00;0.70;;;16.10;93.10;;;;;;4783556;29;20154;-85
2021/09/16 02:13:41;;;;;;;4.65;0.80;;;16.10;93.30;;;;;;4790141;29;20142;-85
2021/09/16 02:16:15;;;;;;;3.90;0.63;;;16.10;93.50;;;;;;4804410;29;20087;-85
2021/09/16 02:18:47;;;;;;;5.25;0.80;;;16.10;93.60;;;;;;4814185;29;20500;-85
2021/09/16 02:21:12;;;;;;;4.90;0.70;;;16.10;93.60;;;;;;4839064;29;20491;-86
2021/09/16 02:23:50;;;;;;;4.50;0.80;;;16.10;93.50;;;;;;4846949;29;20132;-85
2021/09/16 02:26:19;;;;;;;4.05;0.73;;;16.10;93.60;;;;;;4857405;29;20077;-86
2021/09/16 02:28:59;;;;;;;4.25;0.70;;;16.10;93.40;;;;;;4878197;29;20042;-86
2021/09/16 02:31:34;;;;;;;8.23;1.00;;;16.10;93.40;;;;;;4862749;29;20102;-85
2021/09/16 02:34:06;;;;;;;6.15;1.05;;;16.10;93.60;;;;;;4856132;29;20101;-86
2021/09/16 02:36:36;;;;;;;4.63;0.77;;;16.10;93.70;;;;;;4862396;29;20081;-85
2021/09/16 02:39:14;;;;;;;3.05;0.75;;;16.20;93.80;;;;;;4863172;29;20051;-85
2021/09/16 02:41:40;;;;;;;5.00;0.90;;;16.10;93.60;;;;;;4863172;29;20041;-85
2021/09/16 02:44:17;;;;;;;5.43;0.77;;;16.10;93.70;;;;;;4861957;29;20549;-85
2021/09/16 02:46:42;;;;;;;7.72;1.30;;;16.10;93.60;;;;;;4862785;29;20049;-86
2021/09/16 02:49:08;;;;;;;5.28;0.98;;;16.10;93.80;;;;;;4863270;29;20128;-86
2021/09/16 02:51:34;;;;;;;7.63;0.90;;;16.20;93.90;;;;;;4879083;29;20158;-86
2021/09/16 02:53:59;;;;;;;5.65;1.13;;;16.10;94.00;;;;;;4862900;29;20045;-86
2021/09/16 02:56:25;;;;;;;4.60;0.90;;;16.10;94.00;;;;;;4862782;29;20049;-85
2021/09/16 02:58:50;;;;;;;6.65;1.15;;;16.20;94.20;;;;;;4862126;29;20096;-84
2021/09/16 03:01:16;;;;;;;3.78;0.55;;;16.10;94.20;;;;;;4861886;29;20117;-84
2021/09/16 03:03:44;;;;;;;5.55;1.55;;;16.10;94.00;;;;;;4862118;29;20121;-84
2021/09/16 03:06:10;;;;;;;6.40;1.35;;;16.10;94.00;;;;;;4878929;29;20509;-84
2021/09/16 03:08:35;;;;;;;4.53;1.10;;;16.10;94.40;;;;;;4862170;29;20045;-84
2021/09/16 03:11:01;;;;;;;6.68;1.45;;;16.10;94.10;;;;;;4861847;29;20497;-85
2021/09/16 03:13:26;;;;;;;6.45;1.10;;;16.10;94.00;;;;;;4852641;29;20048;-84
2021/09/16 03:15:52;;;;;;;4.78;1.13;;;16.20;94.10;;;;;;4878050;29;20136;-84
2021/09/16 03:18:17;;;;;;;5.28;1.40;;;16.10;93.80;;;;;;4862823;29;20462;-84
2021/09/16 03:20:43;;;;;;;7.00;1.40;;;16.10;94.00;;;;;;4862120;29;20493;-84
2021/09/16 03:23:09;;;;;;;5.50;1.40;;;16.20;93.80;;;;;;4861880;29;20101;-85
2021/09/16 03:25:34;;;;;;;3.20;1.02;;;16.20;94.00;;;;;;4864282;29;20048;-84
2021/09/16 03:28:00;;;;;;;6.60;1.55;;;16.20;93.70;;;;;;4865200;29;20447;-84
2021/09/16 03:30:25;;;;;;;5.65;1.35;;;16.20;93.70;;;;;;4881839;29;20068;-84
2021/09/16 03:32:51;;;;;;;5.78;1.60;;;16.20;93.90;;;;;;4865253;29;20045;-84
2021/09/16 03:35:16;;;;;;;3.17;0.85;;;16.20;93.90;;;;;;4865645;29;20641;-83
2021/09/16 03:37:42;;;;;;;3.75;0.95;;;16.20;93.90;;;;;;4880124;29;20494;-84
2021/09/16 03:40:08;;;;;;;3.88;1.00;;;16.20;93.70;;;;;;4865034;29;20100;-84
2021/09/16 03:42:35;;;;;;;3.75;1.10;;;16.20;93.70;;;;;;4865165;29;20109;-84
2021/09/16 03:45:01;;;;;;;3.50;0.90;;;16.20;93.80;;;;;;4865621;29;20123;-84
2021/09/16 03:47:26;;;;;;;4.82;1.55;;;16.20;93.60;;;;;;4864850;29;20123;-84
2021/09/16 03:49:52;;;;;;;5.25;1.40;;;16.20;93.50;;;;;;4865260;29;20076;-84
2021/09/16 03:52:17;;;;;;;4.60;1.20;;;16.20;93.20;;;;;;4865689;29;20094;-84
2021/09/16 03:54:43;;;;;;;3.83;1.20;;;16.20;93.20;;;;;;4881158;29;20051;-84
2021/09/16 03:57:09;;;;;;;4.00;1.30;;;16.20;93.30;;;;;;4864480;29;20084;-84
2021/09/16 03:59:34;;;;;;;5.72;2.28;;;16.20;93.30;;;;;;4865113;29;20041;-83
2021/09/16 04:02:00;;;;;;;5.32;1.33;;;16.20;93.50;;;;;;4864571;29;20041;-84
2021/09/16 04:04:26;;;;;;;3.75;1.30;;;16.20;93.50;;;;;;4846985;29;20515;-84
2021/09/16 04:06:51;;;;;;;3.50;1.05;;;16.30;93.50;;;;;;4861286;29;20045;-84
2021/09/16 04:09:17;;;;;;;3.67;1.40;;;16.20;93.50;;;;;;4863983;29;20149;-84
2021/09/16 04:11:42;;;;;;;4.10;1.67;;;16.20;93.50;;;;;;4865058;29;20041;-84
2021/09/16 04:14:08;;;;;;;4.03;1.52;;;16.30;93.60;;;;;;4879429;29;20140;-84
2021/09/16 04:16:34;;;;;;;4.00;1.20;;;16.30;93.60;;;;;;4864759;29;20048;-84
2021/09/16 04:19:00;;;;;;;5.65;1.67;;;16.30;93.50;;;;;;4864132;29;20049;-84
2021/09/16 04:21:25;;;;;;;5.07;1.50;;;16.30;93.70;;;;;;4864674;29;20494;-84
2021/09/16 04:23:51;;;;;;;6.75;2.05;;;16.30;93.70;;;;;;4879525;29;20092;-84
2021/09/16 04:26:17;;;;;;;6.50;2.47;;;16.30;93.80;;;;;;4863846;29;20074;-84
2021/09/16 04:28:42;;;;;;;6.13;1.65;;;16.30;93.80;;;;;;4863604;29;20044;-84
2021/09/16 04:31:08;;;;;;;4.47;1.63;;;16.30;93.80;;;;;;4864897;29;20048;-84
2021/09/16 04:33:34;;;;;;;6.95;2.17;;;16.30;93.60;;;;;;4881039;29;20077;-84
2021/09/16 04:36:00;;;;;;;7.65;2.20;;;16.30;93.90;;;;;;4863758;29;20571;-84
2021/09/16 04:38:25;;;;;;;8.73;2.10;;;16.30;93.80;;;;;;4864417;29;20140;-84
2021/09/16 04:40:51;;;;;;;8.55;2.13;;;16.30;93.70;;;;;;4863959;29;20053;-84
2021/09/16 04:43:16;;;;;;;6.32;1.98;;;16.30;93.80;;;;;;4863384;29;20071;-85
2021/09/16 04:45:42;;;;;;;7.68;2.60;;;16.30;93.80;;;;;;4864601;29;20091;-84
2021/09/16 04:48:07;;;;;;;9.88;2.97;;;16.30;94.00;;;;;;4864277;29;20085;-84
2021/09/16 04:50:33;;;;;;;9.38;2.60;;;16.20;94.00;;;;;;4879183;29;20541;-84
2021/09/16 04:52:59;;;;;;;8.38;2.95;;;16.30;93.90;;;;;;4863842;29;20041;-84
2021/09/16 04:55:25;;;;;;;7.85;2.92;;;16.20;93.90;;;;;;4863979;29;20145;-84
2021/09/16 04:57:51;;;;;;;9.65;3.00;;;16.20;94.00;;;;;;4863238;29;20073;-84
2021/09/16 05:00:16;;;;;;;5.63;2.20;;;16.30;94.20;;;;;;4863475;29;20044;-84
2021/09/16 05:02:42;;;;;;;10.05;2.80;;;16.20;93.80;;;;;;4873859;29;20060;-84
2021/09/16 05:05:09;;;;;;;8.80;3.35;;;16.20;93.80;;;;;;4866902;29;20033;-84
2021/09/16 05:07:34;;;;;;;7.43;3.00;;;16.20;94.00;;;;;;4873541;29;20397;-84
2021/09/16 05:10:00;;;;;;;11.20;3.85;;;16.20;93.90;;;;;;4880792;29;20043;-85
2021/09/16 05:12:25;;;;;;;8.02;2.70;;;16.20;94.20;;;;;;4863623;29;20128;-84
2021/09/16 05:14:54;;;;;;;8.55;2.90;;;16.20;94.10;;;;;;4864151;29;20085;-84
2021/09/16 05:17:20;;;;;;;10.32;3.20;;;16.30;94.10;;;;;;4863774;29;20048;-84
2021/09/16 05:19:45;;;;;;;9.50;2.55;;;16.20;94.10;;;;;;4864164;29;20409;-84
2021/09/16 05:22:11;;;;;;;6.82;2.33;;;16.20;93.90;;;;;;4863620;29;20045;-84
2021/09/16 05:24:36;;;;;;;11.05;3.40;;;16.20;93.90;;;;;;4862868;29;20072;-84
2021/09/16 05:27:02;;;;;;;9.55;3.13;;;16.20;93.90;;;;;;4880439;29;20045;-84
2021/09/16 05:29:28;;;;;;;9.98;2.92;;;16.30;94.00;;;;;;4863382;29;20053;-84
2021/09/16 05:31:53;;;;;;;7.00;2.45;;;16.20;93.90;;;;;;4863177;29;20144;-85
2021/09/16 05:34:19;;;;;;;10.80;3.40;;;16.20;94.00;;;;;;4863418;29;20463;-84
2021/09/16 05:36:45;;;;;;;10.75;3.13;;;16.20;94.20;;;;;;4862762;29;20135;-83
2021/09/16 05:39:16;;;;;;;9.88;3.00;;;16.30;94.40;;;;;;4863901;29;20097;-90
2021/09/16 05:41:51;;;;;;;11.50;2.90;;;16.30;94.30;;;;;;4863991;29;20435;-90
2021/09/16 05:44:23;;;;;;;13.27;3.42;;;16.30;94.10;;;;;;4864708;29;20104;-91
2021/09/16 05:46:48;;;;;;;11.40;3.05;;;16.30;94.20;;;;;;4862470;29;20044;-82
2021/09/16 05:49:14;;;;;;;10.68;3.22;;;16.30;94.30;;;;;;4862823;29;20041;-82
2021/09/16 05:51:42;;;;;;;10.32;3.15;;;16.30;94.40;;;;;;4879566;29;20056;-82
2021/09/16 05:54:08;;;;;;;15.63;4.03;;;16.30;94.30;;;;;;4879614;29;20037;-83
2021/09/16 05:56:34;;;;;;;12.80;3.22;;;16.30;94.50;;;;;;4862962;29;20401;-86
2021/09/16 05:59:08;;;;;;;8.23;3.42;;;16.30;94.40;;;;;;4862628;29;20048;-82
2021/09/16 06:01:34;;;;;;;10.48;3.38;;;16.30;94.40;;;;;;4862931;29;20092;-82
2021/09/16 06:04:00;;;;;;;9.30;2.90;;;16.30;94.20;;;;;;4879381;29;20080;-84
2021/09/16 06:06:25;;;;;;;12.48;3.22;;;16.30;94.20;;;;;;4879004;29;20053;-82
2021/09/16 06:08:51;;;;;;;14.35;3.20;;;16.30;94.20;;;;;;4880482;29;20056;-82
2021/09/16 06:11:16;;;;;;;13.15;3.58;;;16.30;94.30;;;;;;4879517;29;20052;-82
2021/09/16 06:13:42;;;;;;;12.05;3.22;;;16.30;94.40;;;;;;4861983;29;20049;-82
2021/09/16 06:16:07;;;;;;;9.80;2.85;;;16.30;94.40;;;;;;4862337;29;20135;-83
2021/09/16 06:18:33;;;;;;;9.27;2.75;;;16.30;94.50;;;;;;4863172;29;20144;-82
2021/09/16 06:20:58;;;;;;;12.75;3.22;;;16.40;94.30;;;;;;4861015;29;20049;-83
2021/09/16 06:23:24;;;;;;;12.55;3.15;;;16.30;94.20;;;;;;4883378;29;20045;-82
2021/09/16 06:25:49;;;;;;;13.15;3.30;;;16.40;94.40;;;;;;4877465;29;20060;-82
2021/09/16 06:28:15;;;;;;;11.40;3.00;;;16.40;94.50;;;;;;4862128;29;20041;-82
2021/09/16 06:30:40;;;;;;;12.45;3.03;;;16.40;94.70;;;;;;4862724;29;20052;-82
2021/09/16 06:33:07;;;;;;;11.25;2.70;;;16.40;94.50;;;;;;4872845;29;20053;-82
2021/09/16 06:35:32;;;;;;;11.38;2.67;;;16.40;94.50;;;;;;4876746;29;20087;-82
2021/09/16 06:37:58;;;;;;;7.97;2.40;;;16.40;94.30;;;;;;4862108;29;20533;-82
2021/09/16 06:40:23;;;;;;;10.00;2.40;;;16.40;94.30;;;;;;4862944;29;20148;-82
2021/09/16 06:42:49;;;;;;;9.07;2.40;;;16.40;94.20;;;;;;4862449;29;20131;-82
2021/09/16 06:45:15;;;;;;;9.50;2.28;;;16.30;94.20;;;;;;4877657;29;20554;-81
2021/09/16 06:47:41;;;;;;;10.18;2.67;;;16.40;94.20;;;;;;4862142;29;20083;-81
2021/09/16 06:50:07;;;;;;;7.63;2.30;;;16.40;94.10;;;;;;4878626;29;20478;-81
2021/09/16 06:52:33;;;;;;;6.90;2.33;;;16.40;94.10;;;;;;4864092;29;20053;-84
2021/09/16 06:54:58;;;;;;;7.65;2.30;;;16.40;94.00;;;;;;4861295;29;20052;-83
2021/09/16 06:57:24;;;;;;;8.90;2.20;;;16.40;94.00;;;;;;4878914;29;20053;-83
2021/09/16 06:59:50;;;;;;;10.15;2.20;;;16.50;94.00;;;;;;4865763;29;20132;-83
2021/09/16 07:02:16;;;;;;;11.52;2.20;;;16.50;94.30;;;;;;4865341;29;20574;-83
2021/09/16 07:04:41;;;;;;;7.60;1.90;;;16.50;94.00;;;;;;4864803;29;20409;-82
2021/09/16 07:07:09;;;;;;;6.68;2.40;;;16.50;94.00;;;;;;4865329;29;20139;-82
2021/09/16 07:09:35;;;;;;;7.55;1.92;;;16.50;94.00;;;;;;4864824;29;20420;-83
2021/09/16 07:12:01;;;;;;;8.52;2.13;;;16.50;94.00;;;;;;4865013;29;20041;-83
2021/09/16 07:14:29;;;;;;;13.18;2.65;;;16.60;94.00;;;;;;4864050;29;20100;-83
2021/09/16 07:16:58;;;;;;;13.27;2.60;;;16.50;94.10;;;;;;4864028;29;20064;-83
2021/09/16 07:19:24;;;;;;;10.20;2.22;;;16.60;94.10;;;;;;4865528;29;20525;-83
2021/09/16 07:21:50;;;;;;;10.95;2.80;;;16.60;94.10;;;;;;4864870;29;20085;-83
2021/09/16 07:24:16;;;;;;;11.60;2.40;;;16.60;94.00;;;;;;4865063;29;20080;-83
2021/09/16 07:26:42;;;;;;;12.73;2.58;;;16.70;94.00;;;;;;4865062;29;20045;-83
2021/09/16 07:29:11;;;;;;;10.85;2.75;;;16.70;94.10;;;;;;4865033;29;20067;-83
2021/09/16 07:31:36;;;;;;;9.05;2.53;;;16.70;94.10;;;;;;4864014;29;20502;-85
2021/09/16 07:34:02;;;;;;;11.48;2.65;;;16.70;94.20;;;;;;4864579;29;20109;-84
2021/09/16 07:36:28;;;;;;;12.43;2.65;;;16.80;94.20;;;;;;4881088;29;20060;-82
2021/09/16 07:38:54;;;;;;;11.38;2.63;;;16.80;94.20;;;;;;4864063;29;20498;-84
2021/09/16 07:41:20;;;;;;;9.00;2.53;;;16.80;94.30;;;;;;4864083;29;20053;-86
2021/09/16 07:46:21;;;;;;;11.82;2.40;;;16.80;94.30;;;;;;4974957;23;20065;-87
2021/09/16 07:48:47;;;;;;;11.07;2.70;;;16.90;94.30;;;;;;4864533;29;20454;-85
2021/09/16 07:51:15;;;;;;;13.35;2.90;;;16.90;94.30;;;;;;4881621;29;20045;-83
2021/09/16 07:53:41;;;;;;;14.13;2.70;;;16.90;94.30;;;;;;4864162;29;20059;-84
2021/09/16 07:56:06;;;;;;;10.77;2.95;;;16.90;94.30;;;;;;4865047;29;20120;-84
2021/09/16 07:58:32;;;;;;;11.88;2.55;;;17.00;94.20;;;;;;4864977;29;20048;-81
2021/09/16 08:00:57;;;;;;;9.90;2.33;;;17.00;94.20;;;;;;4863889;29;20183;-82
2021/09/16 08:03:25;;;;;;;10.70;2.58;;;17.00;94.30;;;;;;4864654;29;20055;-83
2021/09/16 08:05:51;;;;;;;12.38;2.47;;;17.00;94.30;;;;;;4863850;29;20056;-82
2021/09/16 08:08:16;;;;;;;17.27;2.80;;;17.00;94.30;;;;;;4863713;29;20408;-82
2021/09/16 08:10:42;;;;;;;11.20;2.22;;;17.00;94.30;;;;;;4863498;29;20053;-82
2021/09/16 08:13:07;;;;;;;12.93;2.67;;;17.00;94.30;;;;;;4864341;29;20048;-82
2021/09/16 08:15:33;;;;;;;12.73;2.45;;;17.10;94.20;;;;;;4880904;29;20088;-82
2021/09/16 08:17:59;;;;;;;13.52;2.40;;;17.10;94.30;;;;;;4864337;29;20107;-82
2021/09/16 08:20:26;;;;;;;13.77;2.65;;;17.10;94.30;;;;;;4880160;29;20037;-83
2021/09/16 09:19:29;;;;;;;12.23;2.20;;;17.30;94.10;;;;;;4778922;29;20066;-89
2021/09/16 09:22:23;;;;;;;7.10;1.75;;;17.30;94.20;;;;;;4787756;29;20520;-92
2021/09/16 09:47:35;;;;;;;5.55;1.23;;;17.80;93.30;;;;;;4770436;29;20047;-79
2021/09/16 10:02:41;;;;;;;9.43;1.60;;;18.20;91.50;;;;;;4754375;30;20050;-83
2021/09/16 10:05:38;;;;;;;7.43;1.30;;;18.30;91.30;;;;;;4785884;29;20072;-84
2021/09/16 10:08:15;;;;;;;7.03;1.40;;;18.30;90.90;;;;;;4859816;29;20049;-87
2021/09/16 10:10:48;;;;;;;6.18;1.30;;;18.40;90.80;;;;;;4848904;29;20057;-82
2021/09/16 10:13:20;;;;;;;4.75;1.38;;;18.40;90.70;;;;;;4845101;29;20486;-86
2021/09/16 10:15:50;;;;;;;7.07;1.30;;;18.40;90.60;;;;;;4853280;29;20054;-83
2021/09/16 10:18:17;;;;;;;6.97;1.50;;;18.30;90.60;;;;;;4850750;29;20145;-82
2021/09/16 10:20:45;;;;;;;6.25;1.25;;;18.40;90.50;;;;;;4875746;29;20055;-81
2021/09/16 10:23:11;;;;;;;6.55;1.20;;;18.40;90.20;;;;;;4861855;29;20052;-82
2021/09/16 10:25:49;;;;;;;8.38;1.23;;;18.40;89.60;;;;;;4876873;29;20486;-82
2021/09/16 10:28:16;;;;;;;6.57;1.20;;;18.40;89.00;;;;;;4860973;29;20131;-82
2021/09/16 10:45:38;;;;;;;;;;;;;;;;;;;;;
2021/09/16 10:51:58;;;;;;;7.63;1.20;;;18.60;87.80;;;;;;4923368;23;20139;-83
2021/09/16 11:09:04;;;;;;;6.07;1.10;;;18.60;87.60;;;;;;4873706;29;20065;-81
2021/09/16 11:26:47;;;;;;;4.90;1.30;;;18.70;86.80;;;;;;4773031;30;20420;-84
2021/09/16 11:47:59;;;;;;;5.88;1.42;;;18.70;87.20;;;;;;4744194;30;20482;-84
2021/09/16 11:50:38;;;;;;;8.20;1.70;;;18.80;87.10;;;;;;4737498;30;20060;-84
2021/09/16 11:53:06;;;;;;;5.13;1.20;;;18.80;87.00;;;;;;4779235;29;20101;-82
2021/09/16 11:55:44;;;;;;;6.13;1.27;;;18.90;87.60;;;;;;4893051;29;20041;-83
2021/09/16 11:58:14;;;;;;;5.20;1.27;;;18.90;87.10;;;;;;4886099;29;20064;-85
2021/09/16 12:00:54;;;;;;;6.20;1.27;;;19.00;87.10;;;;;;4886182;29;20049;-84
2021/09/16 12:03:20;;;;;;;4.57;1.20;;;19.00;86.10;;;;;;4882309;29;20493;-85
2021/09/16 12:06:03;;;;;;;8.80;1.55;;;19.10;85.60;;;;;;4890479;29;20441;-82
2021/09/16 12:08:33;;;;;;;9.90;1.73;;;19.20;85.50;;;;;;4897070;29;20048;-85
2021/09/16 12:11:03;;;;;;;4.78;1.30;;;19.20;85.80;;;;;;4885727;29;20063;-82
2021/09/16 12:13:35;;;;;;;5.88;1.15;;;19.30;85.40;;;;;;4893908;29;20135;-83
2021/09/16 12:16:05;;;;;;;7.45;1.60;;;19.30;85.60;;;;;;4896989;29;20040;-84
2021/09/16 12:18:34;;;;;;;5.07;1.27;;;19.40;84.90;;;;;;4893084;29;20045;-81
2021/09/16 12:21:03;;;;;;;4.88;1.27;;;19.50;85.10;;;;;;4885213;29;20041;-90
2021/09/16 12:23:29;;;;;;;6.25;1.40;;;19.50;84.80;;;;;;4898395;29;20104;-88
2021/09/16 12:30:14;;;;;;;6.00;1.38;;;19.70;83.80;;;;;;4860499;29;20554;-90
2021/09/16 12:32:39;;;;;;;8.75;1.60;;;19.80;84.40;;;;;;5065568;24;20056;-84
2021/09/16 12:35:16;;;;;;;7.28;1.50;;;19.90;83.90;;;;;;4891686;29;20052;-84
2021/09/16 12:37:42;;;;;;;7.28;1.40;;;20.00;84.20;;;;;;4877595;29;20098;-81
2021/09/16 12:40:22;;;;;;;6.78;1.30;;;20.00;83.60;;;;;;4898656;29;20387;-83
2021/09/16 12:42:48;;;;;;;5.57;1.38;;;20.10;82.80;;;;;;4874866;29;20507;-82
2021/09/16 12:45:14;;;;;;;6.88;1.38;;;20.20;82.90;;;;;;4909719;29;20123;-81
2021/09/16 12:47:52;;;;;;;8.55;1.55;;;20.30;82.60;;;;;;4898777;29;20048;-82
2021/09/16 12:50:22;;;;;;;8.20;1.30;;;20.40;81.50;;;;;;4874893;29;20060;-83
2021/09/16 12:52:47;;;;;;;8.90;1.30;;;20.40;81.30;;;;;;4872167;29;20119;-83
2021/09/16 12:55:14;;;;;;;5.65;1.05;;;20.40;81.20;;;;;;4864566;29;20176;-84
2021/09/16 12:57:45;;;;;;;4.90;1.45;;;20.50;81.60;;;;;;4888376;29;20048;-82
2021/09/16 13:00:20;;;;;;;7.32;1.15;;;20.50;80.20;;;;;;4875590;29;20046;-83
2021/09/16 13:02:48;;;;;;;7.60;1.40;;;20.50;80.20;;;;;;4881755;29;20131;-82
2021/09/16 13:05:20;;;;;;;3.88;1.00;;;20.60;79.60;;;;;;4884694;29;20051;-81
2021/09/16 13:08:06;;;;;;;3.78;1.08;;;20.60;80.30;;;;;;4874990;29;20056;-83
2021/09/16 13:10:45;;;;;;;9.85;1.33;;;20.60;77.80;;;;;;4881748;29;20517;-83
2021/09/16 13:13:14;;;;;;;5.72;1.10;;;20.60;77.70;;;;;;4876739;29;20064;-83
2021/09/16 13:15:42;;;;;;;4.05;1.30;;;20.60;79.00;;;;;;4879609;29;20492;-82
2021/09/16 13:18:08;;;;;;;9.93;1.13;;;20.60;79.80;;;;;;4870596;29;20043;-84
2021/09/16 13:20:35;;;;;;;3.70;1.02;;;20.60;80.00;;;;;;4884023;29;20047;-82
2021/09/16 13:23:01;;;;;;;5.13;1.10;;;20.50;80.30;;;;;;4873400;29;20056;-82
2021/09/16 13:25:27;;;;;;;3.05;0.98;;;20.60;80.50;;;;;;4894304;29;20055;-82
2021/09/16 13:27:53;;;;;;;3.38;1.00;;;20.60;80.50;;;;;;4875139;29;20048;-80
2021/09/16 13:30:19;;;;;;;4.13;1.02;;;20.60;79.00;;;;;;4891908;29;20051;-83
2021/09/16 13:32:45;;;;;;;6.32;0.90;;;20.60;78.40;;;;;;4876489;29;20068;-83
2021/09/16 13:35:13;;;;;;;2.35;1.10;;;20.60;78.30;;;;;;4881774;29;20048;-83
2021/09/16 13:37:39;;;;;;;4.97;1.00;;;20.60;77.70;;;;;;4883402;29;20090;-83
2021/09/16 13:40:06;;;;;;;4.75;1.20;;;20.60;77.30;;;;;;4888809;29;20047;-81
2021/09/16 13:42:32;;;;;;;3.38;1.00;;;20.60;77.30;;;;;;4889084;29;20185;-83
2021/09/16 13:44:57;;;;;;;3.97;1.02;;;20.60;77.00;;;;;;4886049;29;20116;-83
2021/09/16 13:47:23;;;;;;;4.63;1.10;;;20.60;77.30;;;;;;4879882;29;20045;-82
2021/09/16 13:49:49;;;;;;;6.75;1.00;;;20.60;77.80;;;;;;4885929;29;20436;-85
2021/09/16 13:52:14;;;;;;;4.35;1.10;;;20.60;77.60;;;;;;4886978;29;20041;-85
2021/09/16 13:54:40;;;;;;;3.53;0.93;;;20.60;79.10;;;;;;4888999;29;20134;-82
2021/09/16 13:57:06;;;;;;;6.47;1.05;;;20.50;79.10;;;;;;4878650;29;20045;-81
2021/09/16 13:59:32;;;;;;;3.47;1.05;;;20.60;79.70;;;;;;4881152;29;20157;-84
2021/09/16 14:01:58;;;;;;;3.55;1.00;;;20.60;79.60;;;;;;4889754;29;20067;-82
2021/09/16 14:04:24;;;;;;;3.38;1.20;;;20.60;80.50;;;;;;4888066;29;20429;-81
2021/09/16 14:06:50;;;;;;;5.47;1.40;;;20.60;80.60;;;;;;4865565;29;20096;-82
2021/09/16 14:09:16;;;;;;;8.23;1.13;;;20.50;80.70;;;;;;4863834;29;20041;-82
2021/09/16 14:11:44;;;;;;;6.28;1.50;;;20.50;80.40;;;;;;4880886;29;20127;-82
2021/09/16 14:14:10;;;;;;;5.90;1.20;;;20.50;80.90;;;;;;4870651;29;20044;-82
2021/09/16 14:16:35;;;;;;;4.38;1.30;;;20.40;82.10;;;;;;4873234;29;20508;-83
2021/09/16 14:19:02;;;;;;;6.53;1.20;;;20.40;82.00;;;;;;4875642;29;20041;-82
2021/09/16 14:21:27;;;;;;;5.35;1.55;;;20.40;81.30;;;;;;4883264;29;20540;-82
2021/09/16 14:23:53;;;;;;;4.68;1.52;;;20.40;82.20;;;;;;4891378;29;20131;-83
2021/09/16 14:26:18;;;;;;;7.80;1.55;;;20.40;81.90;;;;;;4890754;29;20043;-82
2021/09/16 14:28:44;;;;;;;9.93;1.77;;;20.40;81.80;;;;;;4891397;29;20083;-82
2021/09/16 14:31:10;;;;;;;4.28;1.15;;;20.40;82.50;;;;;;4882964;29;20085;-82
2021/09/16 14:33:35;;;;;;;4.90;1.58;;;20.40;82.60;;;;;;4893866;29;20056;-83
2021/09/16 14:36:01;;;;;;;5.93;1.63;;;20.40;83.50;;;;;;4885763;29;20386;-83
2021/09/16 14:38:26;;;;;;;4.70;1.80;;;20.50;83.80;;;;;;4893511;29;20111;-82
2021/09/16 14:40:52;;;;;;;3.85;1.60;;;20.50;85.00;;;;;;4886350;29;20058;-83
2021/09/16 14:43:17;;;;;;;5.68;1.42;;;20.40;84.60;;;;;;4882700;29;20084;-83
2021/09/16 14:45:44;;;;;;;3.05;1.48;;;20.40;85.60;;;;;;4883005;29;20040;-83
2021/09/16 14:48:10;;;;;;;8.02;1.85;;;20.40;84.90;;;;;;4892535;29;20056;-83
2021/09/16 14:50:37;;;;;;;4.57;1.42;;;20.40;83.30;;;;;;4871878;29;20060;-82
2021/09/16 14:53:04;;;;;;;5.45;1.65;;;20.30;84.00;;;;;;4890895;29;20048;-83
2021/09/16 14:55:30;;;;;;;4.88;1.63;;;20.30;82.70;;;;;;4882532;29;20052;-83
2021/09/16 14:57:55;;;;;;;5.25;1.63;;;20.30;83.10;;;;;;4876086;29;20051;-84
2021/09/16 15:18:49;;;;;;;5.18;1.52;;;20.20;81.80;;;;;;4869093;29;20043;-82
2021/09/16 15:21:33;;;;;;;4.80;1.40;;;20.20;83.20;;;;;;4848006;29;20410;-83
2021/09/16 15:32:21;;;;;;;;;;;;;;;;;;;;;
2021/09/16 15:39:40;;;;;;;3.42;1.35;;;20.30;81.60;;;;;;4818968;29;20050;-84
2021/09/16 16:04:09;;;;;;;4.22;1.40;;;20.40;82.00;;;;;;4749339;30;20154;-83
2021/09/16 16:15:47;;;;;;;4.43;1.50;;;20.50;85.10;;;;;;4789973;29;20146;-82
2021/09/16 16:19:10;;;;;;;4.43;1.40;;;20.50;85.50;;;;;;4785425;29;20059;-83
2021/09/16 16:48:32;;;;;;;3.78;1.48;;;20.80;87.30;;;;;;4786477;29;20046;-84
2021/09/16 16:51:04;;;;;;;4.13;1.77;;;20.70;86.70;;;;;;4769259;30;20059;-85
2021/09/16 16:53:30;;;;;;;3.78;1.60;;;20.80;87.30;;;;;;4802434;29;20105;-84
2021/09/16 16:55:55;;;;;;;4.22;1.60;;;20.80;87.40;;;;;;4831194;29;20128;-84
2021/09/16 16:58:21;;;;;;;3.13;1.50;;;20.80;88.50;;;;;;4843149;29;20132;-84
2021/09/16 17:00:47;;;;;;;5.20;1.85;;;20.80;89.00;;;;;;4830939;29;20057;-84
2021/09/16 17:03:12;;;;;;;5.82;1.88;;;20.80;88.20;;;;;;4837295;29;20106;-85
2021/09/16 17:05:38;;;;;;;4.18;1.85;;;20.80;87.70;;;;;;4834162;29;20049;-84
2021/09/16 17:08:05;;;;;;;5.20;2.10;;;20.80;87.00;;;;;;4838964;29;20514;-85
2021/09/16 17:10:32;;;;;;;3.58;1.88;;;20.70;86.30;;;;;;4853408;29;20489;-84
2021/09/16 17:12:58;;;;;;;3.10;1.58;;;20.70;87.00;;;;;;4850156;29;20080;-84
2021/09/16 17:15:24;;;;;;;3.95;1.60;;;20.70;87.90;;;;;;4856012;29;20131;-84
2021/09/16 17:17:49;;;;;;;4.45;2.20;;;20.70;88.40;;;;;;4849290;29;20116;-86
2021/09/16 17:20:15;;;;;;;6.38;2.83;;;20.60;86.70;;;;;;4852358;29;20465;-84
2021/09/16 17:22:41;;;;;;;4.75;2.30;;;20.60;85.40;;;;;;4847053;29;20394;-84
2021/09/16 17:25:07;;;;;;;3.80;1.88;;;20.50;85.50;;;;;;4849939;29;20387;-83
2021/09/16 17:27:33;;;;;;;4.72;2.38;;;20.50;87.80;;;;;;4855029;29;20041;-85
2021/09/16 17:29:59;;;;;;;4.22;2.40;;;20.50;86.70;;;;;;4846331;29;20041;-84
2021/09/16 17:32:25;;;;;;;4.25;2.20;;;20.50;86.90;;;;;;4869407;29;20120;-84
2021/09/16 17:34:51;;;;;;;5.75;2.05;;;20.40;88.00;;;;;;4874724;29;20081;-84
2021/09/16 17:37:17;;;;;;;3.63;1.80;;;20.50;89.20;;;;;;4849896;29;20088;-84
2021/09/16 17:39:43;;;;;;;4.43;2.08;;;20.50;89.80;;;;;;4847148;29;20054;-84
2021/09/16 17:42:09;;;;;;;5.18;1.90;;;20.50;90.10;;;;;;4854891;29;20050;-86
2021/09/16 17:44:34;;;;;;;4.28;1.85;;;20.50;90.20;;;;;;4851601;29;20132;-87